createdAt,value
2023-04-28T00:00:54.932Z,57.98
2023-04-28T00:03:22.774Z,58.35
2023-04-28T00:05:50.640Z,58.20
2023-04-28T00:08:18.483Z,58.22
2023-04-28T00:10:46.394Z,58.38
2023-04-28T00:13:15.820Z,58.34
2023-04-28T00:15:43.594Z,58.62
2023-04-28T00:18:11.320Z,58.45
2023-04-28T00:20:39.162Z,58.43
2023-04-28T00:23:06.988Z,58.18
2023-04-28T00:25:34.755Z,58.99
2023-04-28T00:28:02.881Z,58.55
2023-04-28T00:30:32.639Z,58.88
2023-04-28T00:33:00.488Z,58.51
2023-04-28T00:35:28.450Z,58.68
2023-04-28T00:37:56.268Z,59.07
2023-04-28T00:40:24.204Z,59.18
2023-04-28T00:42:51.937Z,58.93
2023-04-28T00:45:19.825Z,59.10
2023-04-28T00:47:48.999Z,59.22
2023-04-28T00:50:17.722Z,59.12
2023-04-28T00:52:45.792Z,59.32
2023-04-28T00:55:16.570Z,58.94
2023-04-28T00:57:47.895Z,59.22
2023-04-28T01:00:16.635Z,59.53
2023-04-28T01:02:48.639Z,59.16
2023-04-28T01:05:17.850Z,59.17
2023-04-28T01:07:45.640Z,59.73
2023-04-28T01:10:13.600Z,59.46
2023-04-28T01:12:41.802Z,59.77
2023-04-28T01:15:16.488Z,59.66
2023-04-28T01:17:44.559Z,59.60
2023-04-28T01:20:14.395Z,59.67
2023-04-28T01:22:42.274Z,59.96
2023-04-28T01:25:11.444Z,59.75
2023-04-28T01:27:39.189Z,60.27
2023-04-28T01:30:08.549Z,59.95
2023-04-28T01:32:36.605Z,59.90
2023-04-28T01:35:04.571Z,60.39
2023-04-28T01:37:32.317Z,60.19
2023-04-28T01:40:00.585Z,60.63
2023-04-28T01:42:29.741Z,60.20
2023-04-28T01:44:57.460Z,60.42
2023-04-28T01:47:25.752Z,60.70
2023-04-28T01:49:53.556Z,60.64
2023-04-28T01:52:23.020Z,61.02
2023-04-28T01:54:51.039Z,60.54
2023-04-28T01:57:20.498Z,61.03
2023-04-28T01:59:51.622Z,61.10
2023-04-28T02:02:19.425Z,60.95
2023-04-28T02:04:47.367Z,60.65
2023-04-28T02:07:15.210Z,60.77
2023-04-28T02:09:42.979Z,61.33
2023-04-28T02:12:10.803Z,61.25
2023-04-28T02:14:38.546Z,60.88
2023-04-28T02:17:07.645Z,61.43
2023-04-28T02:19:35.477Z,61.14
2023-04-28T02:22:03.361Z,61.12
2023-04-28T02:24:31.804Z,61.32
2023-04-28T02:26:59.573Z,61.37
2023-04-28T02:29:28.072Z,61.21
2023-04-28T02:31:55.950Z,61.29
2023-04-28T02:34:25.108Z,61.06
2023-04-28T02:36:52.922Z,61.70
2023-04-28T02:39:21.957Z,61.74
2023-04-28T02:41:49.725Z,61.28
2023-04-28T02:44:17.715Z,61.81
2023-04-28T02:46:45.775Z,61.61
2023-04-28T02:49:13.764Z,62.06
2023-04-28T02:51:43.093Z,61.79
2023-04-28T02:54:10.910Z,62.17
2023-04-28T02:56:40.883Z,62.39
2023-04-28T02:59:08.767Z,62.30
2023-04-28T03:01:39.356Z,62.12
2023-04-28T03:04:08.189Z,62.42
2023-04-28T03:06:36.176Z,62.58
2023-04-28T03:09:05.295Z,62.71
2023-04-28T03:11:33.197Z,62.30
2023-04-28T03:14:01.423Z,62.87
2023-04-28T03:16:29.281Z,63.05
2023-04-28T03:18:57.072Z,62.99
2023-04-28T03:21:26.834Z,62.80
2023-04-28T03:23:54.765Z,63.08
2023-04-28T03:26:24.046Z,63.41
2023-04-28T03:28:51.952Z,63.27
2023-04-28T03:31:19.740Z,63.35
2023-04-28T03:33:47.726Z,63.45
2023-04-28T03:36:16.080Z,63.62
2023-04-28T03:38:43.928Z,63.62
2023-04-28T03:41:12.044Z,63.95
2023-04-28T03:43:41.360Z,63.85
2023-04-28T03:46:10.126Z,64.28
2023-04-28T03:48:40.835Z,64.08
2023-04-28T03:51:08.607Z,64.20
2023-04-28T03:53:36.370Z,64.27
2023-04-28T03:56:04.213Z,64.09
2023-04-28T03:58:32.005Z,64.31
2023-04-28T04:01:01.854Z,64.57
2023-04-28T04:03:29.983Z,64.65
2023-04-28T04:05:58.348Z,64.80
2023-04-28T04:08:26.670Z,64.76
2023-04-28T04:10:55.008Z,64.91
2023-04-28T04:13:23.029Z,64.74
2023-04-28T04:15:52.683Z,64.82
2023-04-28T04:18:21.888Z,65.11
2023-04-28T04:20:49.863Z,64.98
2023-04-28T04:23:17.749Z,65.05
2023-04-28T04:25:45.808Z,65.23
2023-04-28T04:30:58.905Z,65.31
2023-04-28T04:33:28.065Z,65.50
2023-04-28T04:35:55.926Z,65.54
2023-04-28T04:38:23.773Z,65.62
2023-04-28T04:40:51.687Z,65.74
2023-04-28T04:43:19.480Z,65.87
2023-04-28T04:45:47.374Z,65.87
2023-04-28T04:48:15.207Z,66.17
2023-04-28T04:50:45.052Z,66.13
2023-04-28T04:53:16.054Z,66.01
2023-04-28T04:55:44.423Z,66.36
2023-04-28T04:58:12.861Z,66.17
2023-04-28T05:00:40.966Z,66.28
2023-04-28T05:03:09.598Z,66.39
2023-04-28T05:05:37.531Z,66.49
2023-04-28T05:08:06.945Z,66.54
2023-04-28T05:10:34.856Z,66.71
2023-04-28T05:13:02.842Z,66.35
2023-04-28T05:15:31.031Z,66.73
2023-04-28T05:17:59.093Z,66.98
2023-04-28T05:20:27.048Z,66.59
2023-04-28T05:22:54.854Z,67.03
2023-04-28T05:25:24.064Z,67.06
2023-04-28T05:27:51.922Z,66.93
2023-04-28T05:30:19.823Z,67.02
2023-04-28T05:32:47.676Z,67.23
2023-04-28T05:35:16.016Z,67.33
2023-04-28T05:37:45.162Z,67.10
2023-04-28T05:40:13.172Z,67.64
2023-04-28T05:42:42.428Z,67.42
2023-04-28T05:45:11.536Z,67.09
2023-04-28T05:47:39.377Z,67.51
2023-04-28T05:50:08.619Z,67.34
2023-04-28T05:52:36.437Z,67.99
2023-04-28T05:55:04.313Z,67.28
2023-04-28T05:57:38.970Z,67.67
2023-04-28T06:00:19.406Z,67.95
2023-04-28T06:02:47.358Z,68.12
2023-04-28T06:05:15.563Z,68.10
2023-04-28T06:07:43.462Z,67.69
2023-04-28T06:10:12.724Z,68.29
2023-04-28T06:12:40.517Z,68.18
2023-04-28T06:15:08.810Z,68.09
2023-04-28T06:17:38.014Z,68.03
2023-04-28T06:20:07.654Z,68.39
2023-04-28T06:22:35.650Z,68.17
2023-04-28T06:25:03.452Z,68.46
2023-04-28T06:27:32.833Z,68.46
2023-04-28T06:30:00.736Z,68.54
2023-04-28T06:32:28.536Z,68.43
2023-04-28T06:34:58.630Z,68.46
2023-04-28T06:37:26.899Z,68.58
2023-04-28T06:39:54.825Z,68.23
2023-04-28T06:42:22.541Z,68.52
2023-04-28T06:44:50.307Z,68.53
2023-04-28T06:47:18.220Z,68.40
2023-04-28T06:49:47.368Z,68.27
2023-04-28T06:52:16.596Z,68.19
2023-04-28T06:54:44.369Z,68.15
2023-04-28T06:57:12.137Z,68.55
2023-04-28T06:59:39.867Z,68.96
2023-04-28T07:02:08.040Z,68.54
2023-04-28T07:04:36.195Z,69.07
2023-04-28T07:07:08.072Z,69.16
2023-04-28T07:09:37.703Z,69.12
2023-04-28T07:12:06.064Z,69.01
2023-04-28T07:14:35.184Z,69.16
2023-04-28T07:17:03.039Z,69.25
2023-04-28T07:19:30.863Z,69.12
2023-04-28T07:21:58.590Z,69.10
2023-04-28T07:24:27.399Z,69.36
2023-04-28T07:26:57.137Z,69.34
2023-04-28T07:29:24.936Z,69.48
2023-04-28T07:31:52.747Z,69.28
2023-04-28T07:34:20.900Z,69.26
2023-04-28T07:36:48.724Z,69.52
2023-04-28T07:39:16.715Z,69.23
2023-04-28T07:41:44.490Z,69.28
2023-04-28T07:44:13.630Z,69.05
2023-04-28T07:46:41.499Z,69.11
2023-04-28T07:49:09.853Z,69.14
2023-04-28T07:51:37.701Z,69.63
2023-04-28T07:54:05.696Z,69.37
2023-04-28T07:56:33.535Z,69.57
2023-04-28T07:59:01.415Z,69.72
2023-04-28T08:01:30.764Z,68.89
2023-04-28T08:03:58.751Z,69.38
2023-04-28T08:06:26.961Z,68.92
2023-04-28T08:08:55.863Z,69.26
2023-04-28T08:11:23.685Z,69.29
2023-04-28T08:13:51.458Z,69.13
2023-04-28T08:16:19.776Z,69.50
2023-04-28T08:18:49.115Z,69.34
2023-04-28T08:21:17.017Z,69.36
2023-04-28T08:23:44.817Z,69.27
2023-04-28T08:26:12.731Z,69.31
2023-04-28T08:28:40.580Z,69.44
2023-04-28T08:31:08.620Z,69.22
2023-04-28T08:33:36.412Z,69.26
2023-04-28T08:36:06.450Z,69.10
2023-04-28T08:38:34.450Z,69.50
2023-04-28T08:41:05.097Z,69.25
2023-04-28T08:43:34.004Z,69.42
2023-04-28T08:46:07.246Z,69.34
2023-04-28T08:48:41.216Z,69.34
2023-04-28T08:51:10.886Z,69.29
2023-04-28T08:54:06.076Z,69.26
2023-04-28T08:56:33.013Z,69.41
2023-04-28T08:59:04.644Z,69.21
2023-04-28T09:01:32.891Z,69.43
2023-04-28T09:04:02.627Z,69.43
2023-04-28T09:06:36.290Z,69.34
2023-04-28T09:09:22.469Z,69.16
2023-04-28T09:11:55.724Z,69.48
2023-04-28T09:14:24.750Z,69.20
2023-04-28T09:16:53.211Z,69.47
2023-04-28T09:19:21.644Z,69.25
2023-04-28T09:21:53.831Z,69.27
2023-04-28T09:24:30.855Z,69.04
2023-04-28T09:26:59.070Z,69.35
2023-04-28T09:29:26.821Z,69.30
2023-04-28T09:31:54.819Z,69.15
2023-04-28T09:34:22.826Z,69.16
2023-04-28T09:36:51.936Z,69.28
2023-04-28T09:39:31.353Z,69.19
2023-04-28T09:42:03.511Z,69.32
2023-04-28T09:44:31.318Z,69.25
2023-04-28T09:46:59.186Z,68.81
2023-04-28T09:49:27.047Z,69.00
2023-04-28T09:52:12.993Z,68.90
2023-04-28T09:54:41.913Z,68.86
2023-04-28T09:57:10.621Z,69.07
2023-04-28T09:59:38.552Z,69.09
2023-04-28T10:02:22.652Z,68.89
2023-04-28T10:04:54.877Z,68.75
2023-04-28T10:07:24.597Z,68.86
2023-04-28T10:09:52.634Z,68.56
2023-04-28T10:12:22.449Z,69.02
2023-04-28T10:14:54.284Z,68.98
2023-04-28T10:17:25.384Z,69.05
2023-04-28T10:19:55.296Z,69.09
2023-04-28T10:22:43.840Z,69.48
2023-04-28T10:25:27.694Z,69.37
2023-04-28T10:27:55.726Z,69.29
2023-04-28T10:30:28.771Z,69.64
2023-04-28T10:33:26.923Z,69.92
2023-04-28T10:35:55.647Z,69.95
2023-04-28T10:38:24.885Z,69.87
2023-04-28T10:40:53.973Z,70.01
2023-04-28T10:43:37.649Z,70.10
2023-04-28T10:46:08.001Z,70.01
2023-04-28T10:49:06.198Z,69.98
2023-04-28T10:51:37.691Z,69.90
2023-04-28T10:54:19.275Z,69.84
2023-04-28T10:57:21.925Z,69.69
2023-04-28T10:59:50.662Z,69.52
2023-04-28T11:02:42.610Z,69.42
2023-04-28T11:05:13.376Z,69.33
2023-04-28T11:07:41.622Z,69.22
2023-04-28T11:10:10.964Z,68.97
2023-04-28T11:13:17.560Z,68.86
2023-04-28T11:16:03.425Z,68.81
2023-04-28T11:18:33.501Z,68.42
2023-04-28T11:21:01.696Z,68.37
2023-04-28T11:23:30.535Z,68.23
2023-04-28T11:25:59.794Z,68.09
2023-04-28T11:28:27.622Z,67.73
2023-04-28T11:31:12.565Z,67.60
2023-04-28T11:33:42.386Z,67.59
2023-04-28T11:36:22.976Z,67.62
2023-04-28T11:38:51.174Z,67.53
2023-04-28T11:41:21.088Z,67.48
2023-04-28T11:43:49.098Z,67.44
2023-04-28T11:46:21.852Z,67.41
2023-04-28T11:48:50.736Z,67.11
2023-04-28T11:51:38.608Z,67.09
2023-04-28T11:54:11.348Z,67.27
2023-04-28T11:56:41.383Z,67.04
2023-04-28T11:59:10.689Z,67.28
2023-04-28T12:01:47.867Z,66.92
2023-04-28T12:04:27.418Z,66.81
2023-04-28T12:07:02.937Z,67.10
2023-04-28T12:09:30.865Z,67.03
2023-04-28T12:12:02.420Z,66.75
2023-04-28T12:14:32.081Z,67.00
2023-04-28T12:17:00.481Z,66.73
2023-04-28T12:19:28.574Z,66.41
2023-04-28T12:22:04.682Z,66.22
2023-04-28T12:24:33.481Z,66.38
2023-04-28T12:27:21.694Z,66.72
2023-04-28T12:29:49.852Z,66.50
2023-04-28T12:32:18.522Z,66.82
2023-04-28T12:34:47.478Z,66.43
2023-04-28T12:37:15.299Z,66.36
2023-04-28T12:39:43.845Z,66.23
2023-04-28T12:42:11.864Z,66.13
2023-04-28T12:44:41.046Z,65.69
2023-04-28T12:47:10.974Z,65.85
2023-04-28T12:49:39.260Z,65.32
2023-04-28T12:52:07.932Z,65.41
2023-04-28T12:54:35.881Z,65.16
2023-04-28T12:57:04.103Z,65.23
2023-04-28T12:59:32.729Z,65.01
2023-04-28T13:02:02.152Z,65.13
2023-04-28T13:04:30.279Z,64.90
2023-04-28T13:06:58.688Z,64.14
2023-04-28T13:09:28.164Z,64.38
2023-04-28T13:11:56.129Z,64.26
2023-04-28T13:14:24.705Z,64.10
2023-04-28T13:16:53.367Z,64.21
2023-04-28T13:19:22.495Z,64.32
2023-04-28T13:21:50.391Z,64.16
2023-04-28T13:24:18.655Z,64.23
2023-04-28T13:26:46.765Z,64.21
2023-04-28T13:29:15.452Z,63.93
2023-04-28T13:31:43.539Z,64.07
2023-04-28T13:34:16.148Z,64.21
2023-04-28T13:36:48.098Z,64.00
2023-04-28T13:39:16.221Z,63.76
2023-04-28T13:41:44.090Z,63.66
2023-04-28T13:44:11.933Z,63.59
2023-04-28T13:46:39.923Z,63.78
2023-04-28T13:49:07.841Z,62.93
2023-04-28T13:51:35.650Z,63.30
2023-04-28T13:54:08.147Z,63.22
2023-04-28T13:56:36.873Z,62.85
2023-04-28T13:59:05.020Z,63.28
2023-04-28T14:01:33.049Z,62.90
2023-04-28T14:04:01.148Z,62.39
2023-04-28T14:06:29.178Z,62.85
2023-04-28T14:08:57.053Z,62.53
2023-04-28T14:11:26.936Z,62.24
2023-04-28T14:13:54.943Z,62.51
2023-04-28T14:16:22.980Z,62.58
2023-04-28T14:18:50.792Z,62.50
2023-04-28T14:21:18.647Z,62.41
2023-04-28T14:23:46.775Z,62.48
2023-04-28T14:26:14.692Z,62.85
2023-04-28T14:28:43.836Z,62.83
2023-04-28T14:31:11.751Z,63.27
2023-04-28T14:33:39.597Z,63.48
2023-04-28T14:36:07.538Z,63.54
2023-04-28T14:38:35.779Z,63.05
2023-04-28T14:41:04.667Z,63.18
2023-04-28T14:43:32.415Z,63.01
2023-04-28T14:46:01.817Z,63.14
2023-04-28T14:48:29.665Z,63.39
2023-04-28T14:50:58.154Z,63.36
2023-04-28T14:53:26.043Z,63.26
2023-04-28T14:55:59.449Z,62.77
2023-04-28T14:58:35.249Z,62.98
2023-04-28T15:01:04.698Z,62.56
2023-04-28T15:03:32.620Z,62.60
2023-04-28T15:06:00.599Z,62.64
2023-04-28T15:08:30.006Z,61.96
2023-04-28T15:10:58.220Z,61.94
2023-04-28T15:13:27.954Z,62.42
2023-04-28T15:15:56.200Z,61.68
2023-04-28T15:18:25.569Z,61.44
2023-04-28T15:20:53.431Z,61.61
2023-04-28T15:23:21.256Z,61.59
2023-04-28T15:25:52.668Z,61.40
2023-04-28T15:28:22.095Z,61.38
2023-04-28T15:30:50.179Z,61.75
2023-04-28T15:33:19.609Z,61.75
2023-04-28T15:35:49.741Z,62.25
2023-04-28T15:38:17.705Z,62.36
2023-04-28T15:40:47.132Z,62.47
2023-04-28T15:43:14.971Z,62.61
2023-04-28T15:45:44.914Z,62.60
2023-04-28T15:48:12.821Z,62.62
2023-04-28T15:50:41.733Z,62.06
2023-04-28T15:53:10.895Z,62.11
2023-04-28T15:55:38.931Z,61.83
2023-04-28T15:58:08.130Z,62.12
2023-04-28T16:00:35.996Z,62.00
2023-04-28T16:03:04.261Z,62.07
2023-04-28T16:05:32.270Z,61.98
2023-04-28T16:08:01.242Z,61.99
2023-04-28T16:10:30.447Z,62.02
2023-04-28T16:12:58.939Z,61.94
2023-04-28T16:15:26.877Z,61.90
2023-04-28T16:17:56.937Z,62.01
2023-04-28T16:20:24.945Z,61.78
2023-04-28T16:22:53.345Z,61.83
2023-04-28T16:25:21.167Z,61.83
2023-04-28T16:27:50.410Z,61.53
2023-04-28T16:30:18.662Z,61.24
2023-04-28T16:32:46.760Z,61.43
2023-04-28T16:35:15.476Z,61.36
2023-04-28T16:37:44.030Z,61.26
2023-04-28T16:40:13.101Z,60.70
2023-04-28T16:42:42.105Z,61.06
2023-04-28T16:45:12.276Z,60.89
2023-04-28T16:47:42.364Z,60.17
2023-04-28T16:50:11.400Z,60.17
2023-04-28T16:52:39.182Z,60.42
2023-04-28T16:55:08.260Z,60.15
2023-04-28T16:57:36.088Z,59.80
2023-04-28T17:00:04.520Z,60.16
2023-04-28T17:02:34.600Z,59.69
2023-04-28T17:05:02.678Z,59.82
2023-04-28T17:07:30.481Z,59.57
2023-04-28T17:09:58.371Z,59.51
2023-04-28T17:12:28.672Z,59.55
2023-04-28T17:14:56.501Z,59.41
2023-04-28T17:17:24.636Z,59.26
2023-04-28T17:19:53.968Z,59.28
2023-04-28T17:22:22.221Z,59.18
2023-04-28T17:24:50.113Z,58.89
2023-04-28T17:27:17.900Z,59.36
2023-04-28T17:29:45.842Z,59.18
2023-04-28T17:32:13.678Z,59.33
2023-04-28T17:34:41.630Z,58.78
2023-04-28T17:37:10.889Z,58.85
2023-04-28T17:39:38.798Z,58.61
2023-04-28T17:42:06.528Z,58.50
2023-04-28T17:44:34.316Z,58.45
2023-04-28T17:47:02.429Z,58.72
2023-04-28T17:49:30.355Z,59.06
2023-04-28T17:51:58.131Z,58.12
2023-04-28T17:54:27.349Z,58.62
2023-04-28T17:56:55.858Z,58.97
2023-04-28T17:59:23.646Z,58.30
2023-04-28T18:01:53.757Z,58.41
2023-04-28T18:04:21.763Z,58.60
2023-04-28T18:06:49.620Z,58.29
2023-04-28T18:09:17.741Z,58.77
2023-04-28T18:11:47.169Z,57.89
2023-04-28T18:14:18.299Z,58.40
2023-04-28T18:16:46.512Z,58.34
2023-04-28T18:19:14.685Z,58.04
2023-04-28T18:21:42.648Z,58.15
2023-04-28T18:24:10.427Z,58.19
2023-04-28T18:26:38.392Z,58.18
2023-04-28T18:29:07.549Z,58.14
2023-04-28T18:31:35.392Z,57.99
2023-04-28T18:34:03.349Z,57.98
2023-04-28T18:36:32.990Z,58.17
2023-04-28T18:39:01.836Z,58.07
2023-04-28T18:41:29.857Z,57.96
2023-04-28T18:43:58.543Z,57.98
2023-04-28T18:46:29.265Z,57.96
2023-04-28T18:48:57.622Z,57.71
2023-04-28T18:51:25.389Z,57.77
2023-04-28T18:53:53.275Z,57.85
2023-04-28T18:56:22.878Z,57.87
2023-04-28T18:58:50.664Z,57.80
2023-04-28T19:01:18.934Z,57.49
2023-04-28T19:03:48.372Z,57.84
2023-04-28T19:06:17.683Z,57.63
2023-04-28T19:08:45.579Z,57.66
2023-04-28T19:11:13.387Z,57.44
2023-04-28T19:13:41.397Z,57.62
2023-04-28T19:16:09.675Z,58.00
2023-04-28T19:18:39.637Z,57.62
2023-04-28T19:21:13.911Z,57.61
2023-04-28T19:23:41.976Z,57.72
2023-04-28T19:26:10.474Z,57.68
2023-04-28T19:28:38.339Z,57.85
2023-04-28T19:31:06.227Z,57.55
2023-04-28T19:33:34.036Z,57.77
2023-04-28T19:36:03.066Z,57.55
2023-04-28T19:38:32.333Z,57.69
2023-04-28T19:41:01.901Z,57.68
2023-04-28T19:43:30.662Z,57.36
2023-04-28T19:45:58.545Z,57.64
2023-04-28T19:48:26.908Z,57.34
2023-04-28T19:50:54.921Z,57.74
2023-04-28T19:53:22.737Z,57.46
2023-04-28T19:55:51.920Z,57.43
2023-04-28T19:58:19.702Z,57.62
2023-04-28T20:00:47.968Z,57.28
2023-04-28T20:03:16.395Z,57.74
2023-04-28T20:05:44.312Z,57.46
2023-04-28T20:08:13.385Z,57.71
2023-04-28T20:10:41.316Z,57.84
2023-04-28T20:13:10.864Z,57.29
2023-04-28T20:15:40.103Z,57.85
2023-04-28T20:18:08.261Z,57.68
2023-04-28T20:20:36.443Z,57.69
2023-04-28T20:23:04.263Z,58.01
2023-04-28T20:25:31.997Z,57.71
2023-04-28T20:27:59.796Z,57.98
2023-04-28T20:30:28.915Z,57.56
2023-04-28T20:32:56.789Z,57.50
2023-04-28T20:35:24.783Z,57.65
2023-04-28T20:37:53.321Z,57.67
2023-04-28T20:40:21.121Z,57.78
2023-04-28T20:42:49.552Z,58.00
2023-04-28T20:45:17.735Z,57.81
2023-04-28T20:47:46.884Z,57.66
2023-04-28T20:50:15.778Z,57.86
2023-04-28T20:52:43.512Z,57.84
2023-04-28T20:55:12.082Z,57.66
2023-04-28T20:57:40.100Z,57.92
2023-04-28T21:00:09.010Z,57.79
2023-04-28T21:02:37.820Z,58.11
2023-04-28T21:05:08.546Z,58.04
2023-04-28T21:07:36.317Z,57.75
2023-04-28T21:10:04.229Z,57.83
2023-04-28T21:12:32.089Z,57.68
2023-04-28T21:15:00.780Z,58.01
2023-04-28T21:17:28.572Z,58.19
2023-04-28T21:19:57.431Z,57.98
2023-04-28T21:22:27.769Z,57.97
2023-04-28T21:24:55.992Z,58.12
2023-04-28T21:27:24.130Z,57.85
2023-04-28T21:29:52.913Z,57.99
2023-04-28T21:32:20.916Z,58.00
2023-04-28T21:34:49.629Z,58.21
2023-04-28T21:37:17.505Z,58.43
2023-04-28T21:39:47.047Z,58.28
2023-04-28T21:42:14.927Z,58.50
2023-04-28T21:44:42.789Z,58.48
2023-04-28T21:47:10.550Z,58.50
2023-04-28T21:49:38.563Z,58.42
2023-04-28T21:52:06.464Z,58.50
2023-04-28T21:54:34.227Z,58.21
2023-04-28T21:57:03.398Z,58.08
2023-04-28T21:59:31.121Z,58.58
2023-04-28T22:01:59.472Z,58.31
2023-04-28T22:04:27.684Z,58.61
2023-04-28T22:06:56.340Z,58.19
2023-04-28T22:09:24.539Z,58.51
2023-04-28T22:11:52.548Z,58.68
2023-04-28T22:14:35.500Z,58.34
2023-04-28T22:17:07.932Z,58.59
2023-04-28T22:19:35.744Z,59.01
2023-04-28T22:22:03.619Z,58.76
2023-04-28T22:24:37.910Z,58.88
2023-04-28T22:27:05.812Z,58.59
2023-04-28T22:29:35.657Z,58.69
2023-04-28T22:32:04.674Z,58.65
2023-04-28T22:34:32.598Z,58.73
2023-04-28T22:37:00.497Z,59.16
2023-04-28T22:39:28.588Z,58.91
2023-04-28T22:41:56.700Z,58.99
2023-04-28T22:44:24.815Z,58.92
2023-04-28T22:46:54.192Z,58.83
2023-04-28T22:49:25.853Z,58.95
2023-04-28T22:51:53.649Z,59.04
2023-04-28T22:54:21.577Z,58.86
2023-04-28T22:56:50.787Z,59.22
2023-04-28T22:59:20.622Z,59.04
2023-04-28T23:01:48.394Z,59.30
2023-04-28T23:04:17.833Z,59.05
2023-04-28T23:06:45.795Z,59.43
2023-04-28T23:09:13.975Z,59.25
2023-04-28T23:11:42.045Z,59.36
2023-04-28T23:14:09.908Z,59.34
2023-04-28T23:16:37.945Z,59.44
2023-04-28T23:19:05.714Z,59.38
2023-04-28T23:21:34.863Z,59.52
2023-04-28T23:24:02.673Z,59.50
2023-04-28T23:26:30.829Z,59.58
2023-04-28T23:28:58.622Z,59.52
2023-04-28T23:31:26.574Z,59.67
2023-04-28T23:33:54.347Z,59.59
2023-04-28T23:36:22.179Z,59.83
2023-04-28T23:38:51.482Z,59.66
2023-04-28T23:41:19.342Z,59.75
2023-04-28T23:43:47.288Z,59.68
2023-04-28T23:46:15.973Z,59.73
2023-04-28T23:48:43.900Z,59.65
2023-04-28T23:51:12.607Z,59.52
2023-04-28T23:53:40.767Z,59.92
2023-04-28T23:56:10.106Z,59.90
2023-04-28T23:58:38.560Z,60.04
